Skip Navigation Links
NOAA logo - Click to go to the NOAA homepage
NOAA's National Weather Service
Alaska Aviation Weather Unit
  NWS logo - Click to go to the NWS homepage
Left Navbar Graphic     17 AKDT = 01 GMT

   
NOAA is celebrating 200 years of science, service, and stewardship. Visit the NOAA 200th celebration Web site to learn more.
USA.gov is the U.S. Government's official Web portal to all Federal, state and local government Web resources and services.
Facebook
NWS on Facebook

Important Change Regarding the AAWU Web Presence

 

Over the last several months, the AAWU has been working to navigate its webpages to a nationally supported server. Security, as well as other needs, have necessitated the change.  We have been given an extension for the site changeover while we diligently work at addressing feedback received. As of July 14, 2017, aawu.arh.noaa.gov will be discontinued. The new AAWU web address is weather.gov/aawu. It is now live and will run in-parallel with the old site until it is discontinued on July 14, 2017. Please continue to send any feedback or questions regarding the new webpages to nws.ar.aawu.webauthors@noaa.gov.  Thank you for your patience during this time of transition.
AAWU Home :: Display TAF Add Bookmark
SPECI PAHL 171903Z AUTO 24004KT 1 3/4SM -SN BR OVC007 M02/M02 A2945 RMK
     AO2 VIS 1 1/2V2 1/2 SNB00 P0000 FZRANO=

SPECI PAHL 171913Z AUTO 23004KT 3SM -SN BR OVC007 M02/M02 A2945 RMK AO2
     SNB00 P0000 FZRANO=

METAR PAHL 172056Z AUTO 27004KT 10SM OVC005 M01/M01 A2945 RMK AO2 SLP981
     60000 T10061011 56003 FZRANO=

METAR PAHL 172156Z AUTO 29004KT 10SM OVC005 M01/M02 A2944 RMK AO2 CIG
     005V008 SLP980 T10061017 FZRANO=

METAR PAHL 172256Z AUTO 31005KT 10SM OVC005 00/M01 A2944 RMK AO2 SLP978
     T00001011 FZRANO=

PAHL 172317Z AUTO 30004KT 5SM UP BR BKN007 OVC015 00/M01 A2944 RMK
     AO2 UPB13 P0000 FZRANO=

METAR PAHL 172356Z AUTO 31005KT 10SM SCT007 BKN029 OVC034 00/M02 A2944
     RMK AO2 UPB13E22SNB22E44 SLP977 P0000 60000 T00001017 10000
     21022 57004 FZRANO=

SPECI PAHL 180014Z AUTO 31005KT 10SM BKN007 OVC029 00/M02 A2943 RMK AO2
     FZRANO=

SPECI PAHL 180032Z AUTO 31006KT 10SM SCT007 OVC010 00/M02 A2943 RMK
 AO2 FZRANO=

SPECI PAHL 180041Z AUTO 30005KT 10SM OVC009 00/M02 A2943 RMK AO2 CIG
     004V012 FZRANO=

METAR PAHL 180056Z AUTO 30003KT 10SM BKN009 OVC041 00/M03 A2943 RMK AO2
     CIG 009V013 SLP975 T00001028 FZRANO=

PAHL 180101Z AUTO VRB03KT 10SM SCT011 BKN041 00/M03 A2943 RMK AO2
     FZRANO=


NOAA's National Weather Service
Alaska Aviation Weather Unit
6930 Sand Lake Road
Anchorage, AK 99502-1845
Disclaimer
Credits
Glossary
Privacy Policy
About Us
Career Opportunities
Contact AAWU Internet Services Site last modified: April, 17th 2012